createdAt,value
2022-08-17T00:01:27.233Z,42.10
2022-08-17T00:04:00.094Z,42.10
2022-08-17T00:06:38.913Z,42.10
2022-08-17T00:09:11.501Z,42.10
2022-08-17T00:12:34.845Z,42.00
2022-08-17T00:14:47.228Z,42.10
2022-08-17T00:17:19.831Z,42.10
2022-08-17T00:19:54.931Z,42.30
2022-08-17T00:22:35.613Z,42.70
2022-08-17T00:25:16.916Z,43.10
2022-08-17T00:27:53.554Z,43.40
2022-08-17T00:30:27.182Z,43.70
2022-08-17T00:33:11.903Z,44.00
2022-08-17T00:35:50.358Z,44.30
2022-08-17T00:38:24.760Z,44.70
2022-08-17T00:41:09.631Z,45.10
2022-08-17T00:44:00.626Z,45.60
2022-08-17T00:46:36.762Z,45.90
2022-08-17T00:49:29.161Z,46.40
2022-08-17T00:52:25.518Z,46.80
2022-08-17T00:55:08.585Z,47.00
2022-08-17T00:57:55.784Z,47.00
2022-08-17T01:00:42.473Z,47.30
2022-08-17T01:03:36.988Z,47.30
2022-08-17T01:06:16.942Z,47.50
2022-08-17T01:08:58.599Z,47.50
2022-08-17T01:11:43.022Z,47.50
2022-08-17T01:14:32.892Z,47.50
2022-08-17T01:17:18.425Z,47.60
2022-08-17T01:20:03.680Z,47.70
2022-08-17T01:22:59.288Z,47.70
2022-08-17T01:25:46.684Z,47.70
2022-08-17T01:28:54.120Z,47.70
2022-08-17T01:32:02.793Z,47.80
2022-08-17T01:34:43.817Z,47.80
2022-08-17T01:37:39.585Z,47.80
2022-08-17T01:40:34.305Z,48.00
2022-08-17T01:43:32.967Z,47.90
2022-08-17T01:46:11.474Z,48.00
2022-08-17T01:48:53.467Z,48.00
2022-08-17T01:51:38.369Z,48.10
2022-08-17T01:54:19.719Z,48.20
2022-08-17T01:56:58.247Z,48.20
2022-08-17T01:59:36.780Z,48.30
2022-08-17T02:02:30.827Z,48.40
2022-08-17T02:05:11.521Z,48.50
2022-08-17T02:07:59.752Z,48.60
2022-08-17T02:10:34.367Z,48.80
2022-08-17T02:13:07.349Z,48.90
2022-08-17T02:15:40.681Z,49.00
2022-08-17T02:18:15.058Z,49.10
2022-08-17T02:20:47.652Z,49.20
2022-08-17T02:23:23.334Z,49.30
2022-08-17T02:25:58.378Z,49.40
2022-08-17T02:28:31.212Z,49.50
2022-08-17T02:31:09.534Z,49.60
2022-08-17T02:33:43.921Z,49.60
2022-08-17T02:36:16.537Z,49.70
2022-08-17T02:38:49.232Z,49.80
2022-08-17T02:41:21.771Z,49.90
2022-08-17T02:43:54.215Z,50.00
2022-08-17T02:46:27.065Z,49.70
2022-08-17T02:49:00.003Z,49.90
2022-08-17T02:51:32.792Z,50.00
2022-08-17T02:54:40.567Z,50.10
2022-08-17T02:56:58.125Z,50.10
2022-08-17T02:59:30.599Z,51.10
2022-08-17T03:02:11.615Z,50.00
2022-08-17T03:04:44.169Z,50.10
2022-08-17T03:07:16.578Z,50.20
2022-08-17T03:09:49.058Z,50.10
2022-08-17T03:12:21.616Z,50.20
2022-08-17T03:14:54.075Z,50.30
2022-08-17T03:17:26.634Z,50.20
2022-08-17T03:19:59.322Z,50.40
2022-08-17T03:22:38.508Z,50.30
2022-08-17T03:25:14.162Z,50.50
2022-08-17T03:27:52.534Z,50.60
2022-08-17T03:30:27.361Z,50.70
2022-08-17T03:33:02.447Z,50.80
2022-08-17T03:35:37.885Z,50.80
2022-08-17T03:38:12.083Z,50.90
2022-08-17T03:40:58.721Z,50.90
2022-08-17T03:43:33.326Z,50.90
2022-08-17T03:46:38.081Z,51.00
2022-08-17T03:49:29.286Z,50.90
2022-08-17T03:52:20.225Z,51.00
2022-08-17T03:55:10.976Z,51.00
2022-08-17T03:57:43.555Z,51.00
2022-08-17T04:00:15.982Z,51.00
2022-08-17T04:02:48.766Z,50.90
2022-08-17T04:05:22.073Z,51.80
2022-08-17T04:07:54.671Z,51.00
2022-08-17T04:10:27.238Z,51.10
2022-08-17T04:13:00.788Z,51.20
2022-08-17T04:15:33.830Z,51.20
2022-08-17T04:18:07.503Z,51.20
2022-08-17T04:20:40.368Z,51.20
2022-08-17T04:23:16.376Z,51.20
2022-08-17T04:25:51.497Z,51.30
2022-08-17T04:28:24.059Z,51.30
2022-08-17T04:30:56.992Z,51.40
2022-08-17T04:33:31.200Z,51.30
2022-08-17T04:36:06.225Z,51.40
2022-08-17T04:38:42.135Z,51.40
2022-08-17T04:41:34.695Z,51.40
2022-08-17T04:44:07.400Z,51.50
2022-08-17T04:46:40.035Z,51.50
2022-08-17T04:49:12.602Z,51.50
2022-08-17T04:51:54.570Z,51.50
2022-08-17T04:54:28.893Z,51.50
2022-08-17T04:57:01.211Z,51.50
2022-08-17T04:59:34.093Z,51.40
2022-08-17T05:02:06.750Z,51.50
2022-08-17T05:04:42.016Z,51.50
2022-08-17T05:07:14.579Z,51.50
2022-08-17T05:09:48.031Z,51.40
2022-08-17T05:12:20.612Z,51.30
2022-08-17T05:14:53.008Z,51.30
2022-08-17T05:17:25.582Z,51.30
2022-08-17T05:19:57.920Z,51.30
2022-08-17T05:22:31.499Z,51.00
2022-08-17T05:25:04.604Z,51.00
2022-08-17T05:27:38.006Z,50.90
2022-08-17T05:30:14.659Z,50.60
2022-08-17T05:32:59.548Z,50.40
2022-08-17T05:35:35.591Z,51.00
2022-08-17T05:38:08.566Z,49.70
2022-08-17T05:40:41.473Z,49.30
2022-08-17T05:43:22.445Z,49.00
2022-08-17T05:46:19.152Z,48.30
2022-08-17T05:49:01.952Z,48.00
2022-08-17T05:51:34.478Z,47.90
2022-08-17T05:54:31.337Z,47.70
2022-08-17T05:57:32.639Z,47.20
2022-08-17T06:00:18.349Z,47.00
2022-08-17T06:03:01.302Z,46.70
2022-08-17T06:06:17.353Z,46.30
2022-08-17T06:09:31.542Z,46.20
2022-08-17T06:12:06.348Z,45.90
2022-08-17T06:15:12.044Z,45.60
2022-08-17T06:17:44.873Z,45.50
2022-08-17T06:20:17.520Z,45.30
2022-08-17T06:22:58.895Z,44.90
2022-08-17T06:25:43.247Z,44.80
2022-08-17T06:28:42.401Z,44.60
2022-08-17T06:31:29.414Z,44.40
2022-08-17T06:34:04.740Z,44.30
2022-08-17T06:36:48.570Z,44.10
2022-08-17T06:39:48.301Z,43.80
2022-08-17T06:43:06.018Z,43.50
2022-08-17T06:45:50.709Z,43.40
2022-08-17T06:48:32.954Z,42.80
2022-08-17T06:51:22.363Z,42.80
2022-08-17T06:54:05.772Z,42.50
2022-08-17T06:57:18.835Z,42.20
2022-08-17T07:00:10.503Z,42.20
2022-08-17T07:03:01.899Z,41.90
2022-08-17T07:06:04.934Z,42.10
2022-08-17T07:08:47.249Z,41.70
2022-08-17T07:11:42.342Z,41.60
2022-08-17T07:14:30.014Z,41.50
2022-08-17T07:17:11.659Z,41.20
2022-08-17T07:19:46.341Z,40.90
2022-08-17T07:22:53.570Z,40.90
2022-08-17T07:25:31.380Z,40.80
2022-08-17T07:28:07.435Z,40.60
2022-08-17T07:30:47.415Z,40.40
2022-08-17T07:33:29.614Z,40.10
2022-08-17T07:36:02.585Z,40.10
2022-08-17T07:38:35.778Z,40.20
2022-08-17T07:41:10.934Z,40.10
2022-08-17T07:43:44.079Z,39.90
2022-08-17T07:46:39.917Z,39.80
2022-08-17T07:49:14.960Z,39.70
2022-08-17T07:51:51.446Z,39.70
2022-08-17T07:54:29.814Z,39.60
2022-08-17T07:57:04.766Z,39.60
2022-08-17T07:59:43.186Z,39.40
2022-08-17T08:02:31.864Z,39.30
2022-08-17T08:05:15.359Z,39.10
2022-08-17T08:08:30.486Z,39.10
2022-08-17T08:11:15.591Z,39.10
2022-08-17T08:13:50.387Z,39.10
2022-08-17T08:16:31.763Z,39.10
2022-08-17T08:19:05.317Z,39.00
2022-08-17T08:21:51.668Z,38.90
2022-08-17T08:24:40.371Z,39.00
2022-08-17T08:27:21.982Z,38.90
2022-08-17T08:29:58.283Z,38.80
2022-08-17T08:32:50.306Z,38.70
2022-08-17T08:35:38.122Z,38.60
2022-08-17T08:38:29.521Z,38.80
2022-08-17T08:41:20.306Z,39.00
2022-08-17T08:44:15.712Z,39.40
2022-08-17T08:47:05.956Z,39.50
2022-08-17T08:50:06.167Z,39.70
2022-08-17T08:52:53.557Z,40.00
2022-08-17T08:55:54.897Z,40.10
2022-08-17T08:58:51.981Z,40.40
2022-08-17T09:02:01.209Z,40.40
2022-08-17T09:05:13.777Z,40.50
2022-08-17T09:08:12.746Z,40.60
2022-08-17T09:10:51.420Z,40.60
2022-08-17T09:14:21.010Z,40.50
2022-08-17T09:16:57.743Z,40.60
2022-08-17T09:19:42.184Z,40.40
2022-08-17T09:22:26.767Z,40.30
2022-08-17T09:25:16.615Z,40.10
2022-08-17T09:28:00.688Z,39.80
2022-08-17T09:30:44.011Z,39.90
2022-08-17T09:33:26.390Z,40.50
2022-08-17T09:36:02.670Z,39.60
2022-08-17T09:38:58.936Z,39.90
2022-08-17T09:41:49.150Z,39.80
2022-08-17T09:44:43.351Z,39.70
2022-08-17T09:47:46.825Z,39.50
2022-08-17T09:51:03.183Z,39.50
2022-08-17T09:53:17.421Z,39.50
2022-08-17T09:56:20.815Z,40.40
2022-08-17T09:59:27.739Z,39.30
2022-08-17T10:02:40.713Z,39.10
2022-08-17T10:05:43.479Z,39.10
2022-08-17T10:08:27.997Z,39.10
2022-08-17T10:11:27.948Z,38.90
2022-08-17T10:14:36.442Z,38.40
2022-08-17T10:17:55.825Z,37.90
2022-08-17T10:20:43.132Z,37.90
2022-08-17T10:23:43.074Z,37.30
2022-08-17T10:26:25.466Z,37.50
2022-08-17T10:29:03.169Z,37.40
2022-08-17T10:31:45.848Z,37.60
2022-08-17T10:34:52.117Z,37.30
2022-08-17T10:37:36.666Z,37.00
2022-08-17T10:40:46.988Z,36.90
2022-08-17T10:44:37.414Z,36.60
2022-08-17T10:47:05.510Z,36.50
2022-08-17T10:49:54.184Z,36.30
2022-08-17T10:52:27.003Z,36.20
2022-08-17T10:55:15.595Z,35.90
2022-08-17T10:57:50.438Z,36.40
2022-08-17T11:00:28.040Z,34.90
2022-08-17T11:03:01.390Z,34.60
2022-08-17T11:05:50.542Z,34.90
2022-08-17T11:09:01.499Z,34.90
2022-08-17T11:12:06.837Z,34.80
2022-08-17T11:15:01.111Z,34.80
2022-08-17T11:17:43.482Z,34.50
2022-08-17T11:20:46.420Z,34.40
2022-08-17T11:23:31.625Z,34.10
2022-08-17T11:26:29.897Z,33.90
2022-08-17T11:29:16.815Z,33.80
2022-08-17T11:32:15.123Z,33.70
2022-08-17T11:34:47.708Z,33.90
2022-08-17T11:37:50.136Z,33.90
2022-08-17T11:40:25.570Z,34.30
2022-08-17T11:43:11.155Z,35.00
2022-08-17T11:46:20.329Z,35.60
2022-08-17T11:49:30.834Z,36.70
2022-08-17T11:52:05.076Z,37.50
2022-08-17T11:54:46.725Z,38.30
2022-08-17T11:57:29.546Z,38.90
2022-08-17T12:00:10.834Z,39.20
2022-08-17T12:02:48.217Z,39.60
2022-08-17T12:05:27.361Z,40.20
2022-08-17T12:08:20.563Z,40.40
2022-08-17T12:11:06.797Z,40.50
2022-08-17T12:13:52.406Z,40.70
2022-08-17T12:16:25.872Z,40.90
2022-08-17T12:19:02.734Z,41.30
2022-08-17T12:22:04.962Z,41.40
2022-08-17T12:24:47.391Z,41.70
2022-08-17T12:27:21.391Z,41.80
2022-08-17T12:30:18.769Z,41.90
2022-08-17T12:32:51.705Z,42.00
2022-08-17T12:35:43.517Z,42.40
2022-08-17T12:38:22.307Z,42.60
2022-08-17T12:41:27.384Z,42.90
2022-08-17T12:44:14.497Z,43.10
2022-08-17T12:46:49.418Z,43.40
2022-08-17T12:49:29.113Z,43.70
2022-08-17T12:52:20.193Z,43.90
2022-08-17T12:55:02.101Z,44.00
2022-08-17T12:57:47.977Z,43.90
2022-08-17T13:00:28.011Z,43.80
2022-08-17T13:03:13.122Z,44.00
2022-08-17T13:06:00.819Z,43.90
2022-08-17T13:08:48.356Z,43.80
2022-08-17T13:11:24.344Z,43.70
2022-08-17T13:14:08.722Z,43.80
2022-08-17T13:16:47.833Z,43.70
2022-08-17T13:19:40.077Z,44.00
2022-08-17T13:22:13.781Z,44.10
2022-08-17T13:24:53.403Z,44.20
2022-08-17T13:27:28.835Z,44.40
2022-08-17T13:30:12.769Z,44.30
2022-08-17T13:32:49.332Z,44.40
2022-08-17T13:35:41.569Z,44.50
2022-08-17T13:38:37.790Z,44.60
2022-08-17T13:41:33.826Z,45.00
2022-08-17T13:44:44.895Z,45.30
2022-08-17T13:47:20.525Z,45.30
2022-08-17T13:49:55.527Z,45.50
2022-08-17T13:52:44.090Z,45.70
2022-08-17T13:55:21.497Z,45.80
2022-08-17T13:58:06.982Z,45.70
2022-08-17T14:00:41.090Z,45.60
2022-08-17T14:03:15.486Z,45.50
2022-08-17T14:05:49.083Z,45.50
2022-08-17T14:08:22.016Z,45.30
2022-08-17T14:10:58.672Z,45.20
2022-08-17T14:13:32.527Z,45.10
2022-08-17T14:16:05.582Z,45.20
2022-08-17T14:18:56.573Z,45.20
2022-08-17T14:21:30.168Z,45.50
2022-08-17T14:24:05.034Z,45.70
2022-08-17T14:26:38.161Z,45.90
2022-08-17T14:29:14.878Z,46.20
2022-08-17T14:31:54.115Z,46.40
2022-08-17T14:34:27.172Z,46.80
2022-08-17T14:36:59.798Z,47.10
2022-08-17T14:39:33.010Z,47.10
2022-08-17T14:42:05.809Z,47.20
2022-08-17T14:44:41.422Z,47.20
2022-08-17T14:47:14.141Z,47.30
2022-08-17T14:49:50.207Z,47.50
2022-08-17T14:52:23.079Z,47.50
2022-08-17T14:54:56.821Z,47.70
2022-08-17T14:57:43.991Z,47.70
2022-08-17T15:00:17.722Z,47.70
2022-08-17T15:02:53.995Z,48.00
2022-08-17T15:05:31.827Z,48.10
2022-08-17T15:08:05.754Z,48.20
2022-08-17T15:10:39.355Z,48.40
2022-08-17T15:13:20.337Z,48.50
2022-08-17T15:15:53.089Z,48.60
2022-08-17T15:18:25.930Z,48.60
2022-08-17T15:20:58.741Z,48.60
2022-08-17T15:23:32.191Z,48.70
2022-08-17T15:26:04.907Z,48.60
2022-08-17T15:28:37.974Z,48.70
2022-08-17T15:31:10.646Z,48.80
2022-08-17T15:33:43.223Z,48.70
2022-08-17T15:36:16.467Z,48.80
2022-08-17T15:38:49.090Z,48.90
2022-08-17T15:41:21.744Z,49.00
2022-08-17T15:43:55.168Z,49.10
2022-08-17T15:46:27.855Z,49.20
2022-08-17T15:49:01.400Z,49.10
2022-08-17T15:51:35.807Z,49.10
2022-08-17T15:54:18.862Z,49.10
2022-08-17T15:56:54.749Z,49.30
2022-08-17T15:59:30.550Z,49.50
2022-08-17T16:03:16.134Z,49.40
2022-08-17T16:04:57.483Z,49.30
2022-08-17T16:07:31.791Z,49.20
2022-08-17T16:10:06.906Z,49.30
2022-08-17T16:12:39.533Z,49.30
2022-08-17T16:15:13.681Z,49.30
2022-08-17T16:17:46.398Z,49.30
2022-08-17T16:20:20.654Z,49.30
2022-08-17T16:22:54.503Z,49.30
2022-08-17T16:25:51.975Z,49.20
2022-08-17T16:28:35.787Z,49.10
2022-08-17T16:31:09.343Z,49.00
2022-08-17T16:33:43.075Z,48.80
2022-08-17T16:36:35.798Z,48.80
2022-08-17T16:39:08.520Z,49.00
2022-08-17T16:41:45.496Z,49.20
2022-08-17T16:44:20.988Z,49.50
2022-08-17T16:46:53.890Z,49.60
2022-08-17T16:49:36.585Z,49.70
2022-08-17T16:52:11.159Z,49.80
2022-08-17T16:54:45.738Z,49.80
2022-08-17T16:57:19.018Z,49.90
2022-08-17T16:59:53.443Z,50.00
2022-08-17T17:02:37.079Z,50.10
2022-08-17T17:05:27.474Z,50.10
2022-08-17T17:08:09.508Z,50.00
2022-08-17T17:10:49.113Z,50.00
2022-08-17T17:13:32.597Z,49.80
2022-08-17T17:16:29.778Z,49.80
2022-08-17T17:19:16.716Z,49.70
2022-08-17T17:22:13.565Z,49.70
2022-08-17T17:25:02.121Z,49.50
2022-08-17T17:28:02.884Z,49.50
2022-08-17T17:30:42.817Z,49.60
2022-08-17T17:33:40.949Z,49.50
2022-08-17T17:36:39.815Z,49.60
2022-08-17T17:39:25.539Z,49.70
2022-08-17T17:42:02.994Z,49.70
2022-08-17T17:44:40.989Z,49.80
2022-08-17T17:47:14.861Z,49.80
2022-08-17T17:49:51.339Z,49.90
2022-08-17T17:52:31.375Z,49.90
2022-08-17T17:55:51.255Z,50.00
2022-08-17T17:58:50.947Z,50.00
2022-08-17T18:01:37.143Z,50.20
2022-08-17T18:04:25.655Z,50.20
2022-08-17T18:07:47.102Z,50.10
2022-08-17T18:10:41.645Z,50.10
2022-08-17T18:13:28.750Z,50.10
2022-08-17T18:16:02.650Z,50.10
2022-08-17T18:18:44.320Z,50.10
2022-08-17T18:21:29.310Z,50.10
2022-08-17T18:24:08.160Z,50.10
2022-08-17T18:26:57.090Z,50.10
2022-08-17T18:29:32.592Z,50.20
2022-08-17T18:32:29.045Z,50.20
2022-08-17T18:35:28.565Z,50.20
2022-08-17T18:38:31.105Z,50.20
2022-08-17T18:41:05.934Z,50.10
2022-08-17T18:43:53.143Z,49.90
2022-08-17T18:46:35.447Z,49.90
2022-08-17T18:49:28.208Z,49.70
2022-08-17T18:52:23.896Z,49.50
2022-08-17T18:55:23.820Z,49.50
2022-08-17T18:58:00.063Z,49.40
2022-08-17T19:00:39.687Z,49.30
2022-08-17T19:03:18.609Z,49.20
2022-08-17T19:05:54.551Z,48.80
2022-08-17T19:08:29.915Z,48.60
2022-08-17T19:11:07.726Z,48.50
2022-08-17T19:13:54.370Z,48.40
2022-08-17T19:16:38.271Z,48.30
2022-08-17T19:19:23.700Z,48.10
2022-08-17T19:22:13.610Z,47.90
2022-08-17T19:24:56.325Z,47.60
2022-08-17T19:28:21.952Z,47.50
2022-08-17T19:31:02.141Z,47.60
2022-08-17T19:33:35.182Z,47.60
2022-08-17T19:36:25.417Z,47.80
2022-08-17T19:39:18.187Z,47.90
2022-08-17T19:41:56.383Z,47.90
2022-08-17T19:44:46.670Z,48.00
2022-08-17T19:47:54.265Z,48.10
2022-08-17T19:50:49.849Z,48.30
2022-08-17T19:54:03.862Z,48.30
2022-08-17T19:56:47.781Z,48.40
2022-08-17T19:59:36.331Z,48.50
2022-08-17T20:02:42.280Z,48.50
2022-08-17T20:06:11.514Z,48.50
2022-08-17T20:09:14.823Z,48.70
2022-08-17T20:12:01.992Z,48.70
2022-08-17T20:14:53.703Z,48.50
2022-08-17T20:17:34.919Z,48.20
2022-08-17T20:20:35.611Z,48.10
2022-08-17T20:23:30.322Z,48.20
2022-08-17T20:26:10.090Z,48.00
2022-08-17T20:29:08.503Z,47.90
2022-08-17T20:32:05.932Z,47.80
2022-08-17T20:34:40.077Z,47.60
2022-08-17T20:37:15.464Z,47.70
2022-08-17T20:40:09.411Z,47.40
2022-08-17T20:42:42.336Z,48.30
2022-08-17T20:46:00.026Z,47.30
2022-08-17T20:48:38.714Z,47.20
2022-08-17T20:51:32.136Z,47.00
2022-08-17T20:54:16.656Z,46.90
2022-08-17T20:56:52.324Z,46.80
2022-08-17T20:59:25.901Z,47.70
2022-08-17T21:02:26.307Z,46.70
2022-08-17T21:05:06.993Z,46.70
2022-08-17T21:07:56.309Z,46.60
2022-08-17T21:10:36.034Z,46.70
2022-08-17T21:13:15.563Z,46.70
2022-08-17T21:16:03.144Z,46.70
2022-08-17T21:18:38.936Z,46.70
2022-08-17T21:21:37.797Z,46.70
2022-08-17T21:24:33.076Z,46.70
2022-08-17T21:27:39.473Z,46.70
2022-08-17T21:30:35.249Z,46.50
2022-08-17T21:33:34.055Z,46.40
2022-08-17T21:36:25.265Z,46.20
2022-08-17T21:39:09.103Z,46.00
2022-08-17T21:41:53.475Z,45.80
2022-08-17T21:44:41.917Z,45.60
2022-08-17T21:47:26.778Z,45.60
2022-08-17T21:50:19.015Z,45.50
2022-08-17T21:52:56.690Z,45.60
2022-08-17T21:55:31.749Z,45.70
2022-08-17T21:58:27.109Z,45.80
2022-08-17T22:01:13.680Z,46.10
2022-08-17T22:03:55.689Z,46.30
2022-08-17T22:06:52.585Z,46.60
2022-08-17T22:09:33.999Z,48.10
2022-08-17T22:12:11.111Z,48.00
2022-08-17T22:15:06.222Z,48.70
2022-08-17T22:17:46.892Z,49.00
2022-08-17T22:20:21.047Z,49.40
2022-08-17T22:23:17.892Z,49.70
2022-08-17T22:26:03.316Z,49.90
2022-08-17T22:28:52.978Z,49.70
2022-08-17T22:31:28.904Z,49.40
2022-08-17T22:34:04.258Z,49.00
2022-08-17T22:36:42.061Z,48.90
2022-08-17T22:39:14.488Z,48.60
2022-08-17T22:42:00.992Z,48.40
2022-08-17T22:44:45.193Z,48.40
2022-08-17T22:47:19.139Z,48.20
2022-08-17T22:50:04.245Z,48.10
2022-08-17T22:53:00.642Z,47.90
2022-08-17T22:55:53.121Z,47.80
2022-08-17T22:58:44.403Z,47.70
2022-08-17T23:01:35.077Z,47.60
2022-08-17T23:04:10.579Z,47.30
2022-08-17T23:06:43.165Z,47.20
2022-08-17T23:09:15.696Z,47.10
2022-08-17T23:11:52.684Z,46.90
2022-08-17T23:14:31.788Z,46.70
2022-08-17T23:17:04.638Z,46.50
2022-08-17T23:19:37.225Z,46.30
2022-08-17T23:22:10.862Z,46.10
2022-08-17T23:24:48.703Z,46.10
2022-08-17T23:27:22.339Z,45.90
2022-08-17T23:29:55.891Z,45.80
2022-08-17T23:32:28.519Z,45.70
2022-08-17T23:35:01.057Z,45.60
2022-08-17T23:37:33.512Z,45.60
2022-08-17T23:40:06.375Z,45.40
2022-08-17T23:42:46.186Z,45.70
2022-08-17T23:45:20.022Z,45.70
2022-08-17T23:47:52.680Z,45.50
2022-08-17T23:50:25.508Z,45.40
2022-08-17T23:53:04.401Z,45.20
2022-08-17T23:55:36.895Z,45.20
2022-08-17T23:58:09.334Z,45.10
